sensor_id;sensor_type;location;lat;lon;timestamp;temperature;humidity
9193;DHT22;4631;49.296;10.560;2023-10-31T00:01:34;11.90;99.90
9193;DHT22;4631;49.296;10.560;2023-10-31T00:04:00;11.90;99.90
9193;DHT22;4631;49.296;10.560;2023-10-31T00:06:27;11.90;99.90
9193;DHT22;4631;49.296;10.560;2023-10-31T00:08:55;11.90;99.90
9193;DHT22;4631;49.296;10.560;2023-10-31T00:11:21;11.90;99.90
9193;DHT22;4631;49.296;10.560;2023-10-31T00:13:48;11.80;99.90
9193;DHT22;4631;49.296;10.560;2023-10-31T00:16:15;11.80;99.90
9193;DHT22;4631;49.296;10.560;2023-10-31T00:18:41;11.80;99.90
9193;DHT22;4631;49.296;10.560;2023-10-31T00:21:08;11.80;99.90
9193;DHT22;4631;49.296;10.560;2023-10-31T00:23:41;11.80;99.90
9193;DHT22;4631;49.296;10.560;2023-10-31T00:26:10;11.70;99.90
9193;DHT22;4631;49.296;10.560;2023-10-31T00:28:36;11.80;99.90
9193;DHT22;4631;49.296;10.560;2023-10-31T00:31:03;11.80;99.90
9193;DHT22;4631;49.296;10.560;2023-10-31T00:33:30;11.80;99.90
9193;DHT22;4631;49.296;10.560;2023-10-31T00:35:57;11.70;99.90
9193;DHT22;4631;49.296;10.560;2023-10-31T00:38:23;11.60;99.90
9193;DHT22;4631;49.296;10.560;2023-10-31T00:40:50;11.60;99.90
9193;DHT22;4631;49.296;10.560;2023-10-31T00:43:18;11.60;99.90
9193;DHT22;4631;49.296;10.560;2023-10-31T00:45:44;11.60;99.90
9193;DHT22;4631;49.296;10.560;2023-10-31T00:48:11;11.60;99.90
9193;DHT22;4631;49.296;10.560;2023-10-31T00:50:38;11.70;99.90
9193;DHT22;4631;49.296;10.560;2023-10-31T00:53:04;11.60;99.90
9193;DHT22;4631;49.296;10.560;2023-10-31T00:55:31;11.70;99.90
9193;DHT22;4631;49.296;10.560;2023-10-31T00:57:57;11.70;99.90
9193;DHT22;4631;49.296;10.560;2023-10-31T01:00:25;11.70;99.90
9193;DHT22;4631;49.296;10.560;2023-10-31T01:02:52;11.70;99.90
9193;DHT22;4631;49.296;10.560;2023-10-31T01:05:19;11.60;99.90
9193;DHT22;4631;49.296;10.560;2023-10-31T01:07:45;11.70;99.90
9193;DHT22;4631;49.296;10.560;2023-10-31T01:10:12;11.60;99.90
9193;DHT22;4631;49.296;10.560;2023-10-31T01:12:38;11.60;99.90
9193;DHT22;4631;49.296;10.560;2023-10-31T01:15:05;11.60;99.90
9193;DHT22;4631;49.296;10.560;2023-10-31T01:17:33;11.60;99.90
9193;DHT22;4631;49.296;10.560;2023-10-31T01:20:00;11.60;99.90
9193;DHT22;4631;49.296;10.560;2023-10-31T01:22:27;11.60;99.90
9193;DHT22;4631;49.296;10.560;2023-10-31T01:24:54;11.60;99.90
9193;DHT22;4631;49.296;10.560;2023-10-31T01:27:20;11.50;99.90
9193;DHT22;4631;49.296;10.560;2023-10-31T01:29:47;11.50;99.90
9193;DHT22;4631;49.296;10.560;2023-10-31T01:32:14;11.50;99.90
9193;DHT22;4631;49.296;10.560;2023-10-31T01:34:42;11.50;99.90
9193;DHT22;4631;49.296;10.560;2023-10-31T01:37:08;11.50;99.90
9193;DHT22;4631;49.296;10.560;2023-10-31T01:39:35;11.50;99.90
9193;DHT22;4631;49.296;10.560;2023-10-31T01:42:02;11.50;99.90
9193;DHT22;4631;49.296;10.560;2023-10-31T01:44:29;11.40;99.90
9193;DHT22;4631;49.296;10.560;2023-10-31T01:46:55;11.30;99.90
9193;DHT22;4631;49.296;10.560;2023-10-31T01:49:22;11.30;99.90
9193;DHT22;4631;49.296;10.560;2023-10-31T01:51:50;11.20;99.90
9193;DHT22;4631;49.296;10.560;2023-10-31T01:54:17;11.10;99.90
9193;DHT22;4631;49.296;10.560;2023-10-31T01:56:43;11.00;99.90
9193;DHT22;4631;49.296;10.560;2023-10-31T01:59:10;11.00;99.90
9193;DHT22;4631;49.296;10.560;2023-10-31T02:01:37;10.90;99.90
9193;DHT22;4631;49.296;10.560;2023-10-31T02:04:04;10.80;99.90
9193;DHT22;4631;49.296;10.560;2023-10-31T02:06:31;10.70;99.90
9193;DHT22;4631;49.296;10.560;2023-10-31T02:08:59;10.70;99.90
9193;DHT22;4631;49.296;10.560;2023-10-31T02:11:26;10.70;99.90
9193;DHT22;4631;49.296;10.560;2023-10-31T02:13:52;10.60;99.90
9193;DHT22;4631;49.296;10.560;2023-10-31T02:16:19;10.60;99.90
9193;DHT22;4631;49.296;10.560;2023-10-31T02:18:46;10.60;99.90
9193;DHT22;4631;49.296;10.560;2023-10-31T02:21:12;10.60;99.90
9193;DHT22;4631;49.296;10.560;2023-10-31T02:23:40;10.60;99.90
9193;DHT22;4631;49.296;10.560;2023-10-31T02:26:07;10.60;99.90
9193;DHT22;4631;49.296;10.560;2023-10-31T02:28:33;10.50;99.90
9193;DHT22;4631;49.296;10.560;2023-10-31T02:31:00;10.50;99.90
9193;DHT22;4631;49.296;10.560;2023-10-31T02:33:27;10.50;99.90
9193;DHT22;4631;49.296;10.560;2023-10-31T02:35:53;10.50;99.90
9193;DHT22;4631;49.296;10.560;2023-10-31T02:38:20;10.60;99.90
9193;DHT22;4631;49.296;10.560;2023-10-31T02:40:48;10.60;99.90
9193;DHT22;4631;49.296;10.560;2023-10-31T02:43:14;10.60;99.90
9193;DHT22;4631;49.296;10.560;2023-10-31T02:45:41;10.50;99.90
9193;DHT22;4631;49.296;10.560;2023-10-31T02:48:07;10.60;99.90
9193;DHT22;4631;49.296;10.560;2023-10-31T02:50:34;10.50;99.90
9193;DHT22;4631;49.296;10.560;2023-10-31T02:53:01;10.50;99.90
9193;DHT22;4631;49.296;10.560;2023-10-31T02:55:27;10.50;99.90
9193;DHT22;4631;49.296;10.560;2023-10-31T02:57:55;10.50;99.90
9193;DHT22;4631;49.296;10.560;2023-10-31T03:00:22;10.30;99.90
9193;DHT22;4631;49.296;10.560;2023-10-31T03:02:49;10.30;99.90
9193;DHT22;4631;49.296;10.560;2023-10-31T03:05:15;10.40;99.90
9193;DHT22;4631;49.296;10.560;2023-10-31T03:07:42;10.40;99.90
9193;DHT22;4631;49.296;10.560;2023-10-31T03:10:09;10.30;99.90
9193;DHT22;4631;49.296;10.560;2023-10-31T03:12:36;10.30;99.90
9193;DHT22;4631;49.296;10.560;2023-10-31T03:15:04;10.20;99.90
9193;DHT22;4631;49.296;10.560;2023-10-31T03:17:31;10.20;99.90
9193;DHT22;4631;49.296;10.560;2023-10-31T03:19:58;10.20;99.90
9193;DHT22;4631;49.296;10.560;2023-10-31T03:22:24;10.10;99.90
9193;DHT22;4631;49.296;10.560;2023-10-31T03:24:51;10.10;99.90
9193;DHT22;4631;49.296;10.560;2023-10-31T03:27:18;10.10;99.90
9193;DHT22;4631;49.296;10.560;2023-10-31T03:29:44;10.00;99.90
9193;DHT22;4631;49.296;10.560;2023-10-31T03:32:14;10.00;99.90
9193;DHT22;4631;49.296;10.560;2023-10-31T03:34:41;10.00;99.90
9193;DHT22;4631;49.296;10.560;2023-10-31T03:37:07;10.00;99.90
9193;DHT22;4631;49.296;10.560;2023-10-31T03:39:34;10.00;99.90
9193;DHT22;4631;49.296;10.560;2023-10-31T03:42:00;9.90;99.90
9193;DHT22;4631;49.296;10.560;2023-10-31T03:44:27;9.90;99.90
9193;DHT22;4631;49.296;10.560;2023-10-31T03:46:54;9.90;99.90
9193;DHT22;4631;49.296;10.560;2023-10-31T03:49:22;9.90;99.90
9193;DHT22;4631;49.296;10.560;2023-10-31T03:51:48;9.90;99.90
9193;DHT22;4631;49.296;10.560;2023-10-31T03:54:16;9.80;99.90
9193;DHT22;4631;49.296;10.560;2023-10-31T03:56:43;9.80;99.90
9193;DHT22;4631;49.296;10.560;2023-10-31T03:59:10;9.80;99.90
9193;DHT22;4631;49.296;10.560;2023-10-31T04:01:36;9.80;99.90
9193;DHT22;4631;49.296;10.560;2023-10-31T04:04:03;9.80;99.90
9193;DHT22;4631;49.296;10.560;2023-10-31T04:06:31;9.80;99.90
9193;DHT22;4631;49.296;10.560;2023-10-31T04:08:58;9.80;99.90
9193;DHT22;4631;49.296;10.560;2023-10-31T04:11:25;9.80;99.90
9193;DHT22;4631;49.296;10.560;2023-10-31T04:13:51;9.80;99.90
9193;DHT22;4631;49.296;10.560;2023-10-31T04:16:18;9.80;99.90
9193;DHT22;4631;49.296;10.560;2023-10-31T04:18:44;9.80;99.90
9193;DHT22;4631;49.296;10.560;2023-10-31T04:21:11;9.80;99.90
9193;DHT22;4631;49.296;10.560;2023-10-31T04:23:39;9.80;99.90
9193;DHT22;4631;49.296;10.560;2023-10-31T04:26:05;9.80;99.90
9193;DHT22;4631;49.296;10.560;2023-10-31T04:28:32;9.80;99.90
9193;DHT22;4631;49.296;10.560;2023-10-31T04:30:59;9.70;99.90
9193;DHT22;4631;49.296;10.560;2023-10-31T04:33:25;9.70;99.90
9193;DHT22;4631;49.296;10.560;2023-10-31T04:35:52;9.70;99.90
9193;DHT22;4631;49.296;10.560;2023-10-31T04:38:18;9.70;99.90
9193;DHT22;4631;49.296;10.560;2023-10-31T04:40:46;9.70;99.90
9193;DHT22;4631;49.296;10.560;2023-10-31T04:43:15;9.60;99.90
9193;DHT22;4631;49.296;10.560;2023-10-31T04:45:41;9.60;99.90
9193;DHT22;4631;49.296;10.560;2023-10-31T04:48:08;9.60;99.90
9193;DHT22;4631;49.296;10.560;2023-10-31T04:50:35;9.60;99.90
9193;DHT22;4631;49.296;10.560;2023-10-31T04:53:02;9.60;99.90
9193;DHT22;4631;49.296;10.560;2023-10-31T04:55:28;9.60;99.90
9193;DHT22;4631;49.296;10.560;2023-10-31T04:57:56;9.60;99.90
9193;DHT22;4631;49.296;10.560;2023-10-31T05:00:23;9.60;99.90
9193;DHT22;4631;49.296;10.560;2023-10-31T05:02:50;9.60;99.90
9193;DHT22;4631;49.296;10.560;2023-10-31T05:05:16;9.60;99.90
9193;DHT22;4631;49.296;10.560;2023-10-31T05:07:43;9.60;99.90
9193;DHT22;4631;49.296;10.560;2023-10-31T05:10:09;9.60;99.90
9193;DHT22;4631;49.296;10.560;2023-10-31T05:12:36;9.60;99.90
9193;DHT22;4631;49.296;10.560;2023-10-31T05:15:05;9.60;99.90
9193;DHT22;4631;49.296;10.560;2023-10-31T05:17:32;9.60;99.90
9193;DHT22;4631;49.296;10.560;2023-10-31T05:19:58;9.60;99.90
9193;DHT22;4631;49.296;10.560;2023-10-31T05:22:25;9.70;99.90
9193;DHT22;4631;49.296;10.560;2023-10-31T05:24:52;9.70;99.90
9193;DHT22;4631;49.296;10.560;2023-10-31T05:27:19;9.60;99.90
9193;DHT22;4631;49.296;10.560;2023-10-31T05:29:46;9.60;99.90
9193;DHT22;4631;49.296;10.560;2023-10-31T05:32:13;9.60;99.90
9193;DHT22;4631;49.296;10.560;2023-10-31T05:34:40;9.60;99.90
9193;DHT22;4631;49.296;10.560;2023-10-31T05:37:07;9.60;99.90
9193;DHT22;4631;49.296;10.560;2023-10-31T05:39:34;9.60;99.90
9193;DHT22;4631;49.296;10.560;2023-10-31T05:42:02;9.60;99.90
9193;DHT22;4631;49.296;10.560;2023-10-31T05:44:29;9.50;99.90
9193;DHT22;4631;49.296;10.560;2023-10-31T05:46:56;9.50;99.90
9193;DHT22;4631;49.296;10.560;2023-10-31T05:49:24;9.40;99.90
9193;DHT22;4631;49.296;10.560;2023-10-31T05:51:51;9.40;99.90
9193;DHT22;4631;49.296;10.560;2023-10-31T05:54:17;9.50;99.90
9193;DHT22;4631;49.296;10.560;2023-10-31T05:56:44;9.50;99.90
9193;DHT22;4631;49.296;10.560;2023-10-31T05:59:11;9.40;99.90
9193;DHT22;4631;49.296;10.560;2023-10-31T06:01:38;9.40;99.90
9193;DHT22;4631;49.296;10.560;2023-10-31T06:04:04;9.40;99.90
9193;DHT22;4631;49.296;10.560;2023-10-31T06:06:32;9.50;99.90
9193;DHT22;4631;49.296;10.560;2023-10-31T06:08:59;9.40;99.90
9193;DHT22;4631;49.296;10.560;2023-10-31T06:11:26;9.50;99.90
9193;DHT22;4631;49.296;10.560;2023-10-31T06:13:52;9.40;99.90
9193;DHT22;4631;49.296;10.560;2023-10-31T06:16:19;9.40;99.90
9193;DHT22;4631;49.296;10.560;2023-10-31T06:18:46;9.40;99.90
9193;DHT22;4631;49.296;10.560;2023-10-31T06:21:13;9.50;99.90
9193;DHT22;4631;49.296;10.560;2023-10-31T06:23:41;9.50;99.90
9193;DHT22;4631;49.296;10.560;2023-10-31T06:26:09;9.50;99.90
9193;DHT22;4631;49.296;10.560;2023-10-31T06:28:36;9.50;99.90
9193;DHT22;4631;49.296;10.560;2023-10-31T06:31:05;9.50;99.90
9193;DHT22;4631;49.296;10.560;2023-10-31T06:33:31;9.50;99.90
9193;DHT22;4631;49.296;10.560;2023-10-31T06:35:58;9.50;99.90
9193;DHT22;4631;49.296;10.560;2023-10-31T06:38:25;9.50;99.90
9193;DHT22;4631;49.296;10.560;2023-10-31T06:40:53;9.50;99.90
9193;DHT22;4631;49.296;10.560;2023-10-31T06:43:19;9.50;99.90
9193;DHT22;4631;49.296;10.560;2023-10-31T06:45:46;9.60;99.90
9193;DHT22;4631;49.296;10.560;2023-10-31T06:48:13;9.60;99.90
9193;DHT22;4631;49.296;10.560;2023-10-31T06:50:41;9.60;99.90
9193;DHT22;4631;49.296;10.560;2023-10-31T06:53:11;9.60;99.90
9193;DHT22;4631;49.296;10.560;2023-10-31T06:55:38;9.60;99.90
9193;DHT22;4631;49.296;10.560;2023-10-31T06:58:09;9.70;99.90
9193;DHT22;4631;49.296;10.560;2023-10-31T07:00:36;9.60;99.90
9193;DHT22;4631;49.296;10.560;2023-10-31T07:03:03;9.60;99.90
9193;DHT22;4631;49.296;10.560;2023-10-31T07:05:34;9.60;99.90
9193;DHT22;4631;49.296;10.560;2023-10-31T07:08:01;9.60;99.90
9193;DHT22;4631;49.296;10.560;2023-10-31T07:10:28;9.70;99.90
9193;DHT22;4631;49.296;10.560;2023-10-31T07:12:55;9.70;99.90
9193;DHT22;4631;49.296;10.560;2023-10-31T07:15:23;9.60;99.90
9193;DHT22;4631;49.296;10.560;2023-10-31T07:17:50;9.60;99.90
9193;DHT22;4631;49.296;10.560;2023-10-31T07:20:16;9.70;99.90
9193;DHT22;4631;49.296;10.560;2023-10-31T07:22:43;9.70;99.90
9193;DHT22;4631;49.296;10.560;2023-10-31T07:25:10;9.70;99.90
9193;DHT22;4631;49.296;10.560;2023-10-31T07:27:37;9.70;99.90
9193;DHT22;4631;49.296;10.560;2023-10-31T07:30:04;9.70;99.90
9193;DHT22;4631;49.296;10.560;2023-10-31T07:32:32;9.70;99.90
9193;DHT22;4631;49.296;10.560;2023-10-31T07:34:59;9.80;99.90
9193;DHT22;4631;49.296;10.560;2023-10-31T07:37:25;9.80;99.90
9193;DHT22;4631;49.296;10.560;2023-10-31T07:39:51;9.80;99.90
9193;DHT22;4631;49.296;10.560;2023-10-31T07:42:18;9.90;99.90
9193;DHT22;4631;49.296;10.560;2023-10-31T07:44:45;9.90;99.90
9193;DHT22;4631;49.296;10.560;2023-10-31T07:47:11;9.90;99.90
9193;DHT22;4631;49.296;10.560;2023-10-31T07:49:39;9.90;99.90
9193;DHT22;4631;49.296;10.560;2023-10-31T07:52:06;9.90;99.90
9193;DHT22;4631;49.296;10.560;2023-10-31T07:54:33;9.90;99.90
9193;DHT22;4631;49.296;10.560;2023-10-31T07:56:59;9.90;99.90
9193;DHT22;4631;49.296;10.560;2023-10-31T07:59:26;9.90;99.90
9193;DHT22;4631;49.296;10.560;2023-10-31T08:01:53;9.90;99.90
9193;DHT22;4631;49.296;10.560;2023-10-31T08:04:19;10.00;99.90
9193;DHT22;4631;49.296;10.560;2023-10-31T08:06:48;9.90;99.90
9193;DHT22;4631;49.296;10.560;2023-10-31T08:09:14;9.90;99.90
9193;DHT22;4631;49.296;10.560;2023-10-31T08:11:41;9.80;99.90
9193;DHT22;4631;49.296;10.560;2023-10-31T08:14:08;9.70;99.90
9193;DHT22;4631;49.296;10.560;2023-10-31T08:16:35;9.70;99.90
9193;DHT22;4631;49.296;10.560;2023-10-31T08:19:02;9.70;99.90
9193;DHT22;4631;49.296;10.560;2023-10-31T08:21:28;9.70;99.90
9193;DHT22;4631;49.296;10.560;2023-10-31T08:24:01;9.70;99.90
9193;DHT22;4631;49.296;10.560;2023-10-31T08:26:28;9.70;99.90
9193;DHT22;4631;49.296;10.560;2023-10-31T08:28:55;9.80;99.90
9193;DHT22;4631;49.296;10.560;2023-10-31T08:31:21;9.80;99.90
9193;DHT22;4631;49.296;10.560;2023-10-31T08:33:48;9.80;99.90
9193;DHT22;4631;49.296;10.560;2023-10-31T08:36:15;9.90;99.90
9193;DHT22;4631;49.296;10.560;2023-10-31T08:38:41;9.90;99.90
9193;DHT22;4631;49.296;10.560;2023-10-31T08:41:09;9.90;99.90
9193;DHT22;4631;49.296;10.560;2023-10-31T08:43:36;9.90;99.90
9193;DHT22;4631;49.296;10.560;2023-10-31T08:46:03;9.90;99.90
9193;DHT22;4631;49.296;10.560;2023-10-31T08:48:30;9.80;99.90
9193;DHT22;4631;49.296;10.560;2023-10-31T08:50:56;9.80;99.90
9193;DHT22;4631;49.296;10.560;2023-10-31T08:53:23;9.80;99.90
9193;DHT22;4631;49.296;10.560;2023-10-31T08:55:50;9.90;99.90
9193;DHT22;4631;49.296;10.560;2023-10-31T08:58:18;9.80;99.90
9193;DHT22;4631;49.296;10.560;2023-10-31T09:00:44;9.80;99.90
9193;DHT22;4631;49.296;10.560;2023-10-31T09:03:11;9.70;99.90
9193;DHT22;4631;49.296;10.560;2023-10-31T09:05:38;9.70;99.90
9193;DHT22;4631;49.296;10.560;2023-10-31T09:08:05;9.70;99.90
9193;DHT22;4631;49.296;10.560;2023-10-31T09:10:31;9.70;99.90
9193;DHT22;4631;49.296;10.560;2023-10-31T09:12:58;9.70;99.90
9193;DHT22;4631;49.296;10.560;2023-10-31T09:15:26;9.70;99.90
9193;DHT22;4631;49.296;10.560;2023-10-31T09:17:53;9.70;99.90
9193;DHT22;4631;49.296;10.560;2023-10-31T09:20:19;9.70;99.90
9193;DHT22;4631;49.296;10.560;2023-10-31T09:22:46;9.70;99.90
9193;DHT22;4631;49.296;10.560;2023-10-31T09:25:13;9.70;99.90
9193;DHT22;4631;49.296;10.560;2023-10-31T09:27:40;9.70;99.90
9193;DHT22;4631;49.296;10.560;2023-10-31T09:30:07;9.70;99.90
9193;DHT22;4631;49.296;10.560;2023-10-31T09:32:35;9.70;99.90
9193;DHT22;4631;49.296;10.560;2023-10-31T09:35:02;9.60;99.90
9193;DHT22;4631;49.296;10.560;2023-10-31T09:37:29;9.70;99.90
9193;DHT22;4631;49.296;10.560;2023-10-31T09:39:55;9.70;99.90
9193;DHT22;4631;49.296;10.560;2023-10-31T09:42:22;9.70;99.90
9193;DHT22;4631;49.296;10.560;2023-10-31T09:44:48;9.80;99.90
9193;DHT22;4631;49.296;10.560;2023-10-31T09:47:15;9.80;99.90
9193;DHT22;4631;49.296;10.560;2023-10-31T09:49:43;9.80;99.90
9193;DHT22;4631;49.296;10.560;2023-10-31T09:52:11;9.90;99.90
9193;DHT22;4631;49.296;10.560;2023-10-31T09:54:37;9.80;99.90
9193;DHT22;4631;49.296;10.560;2023-10-31T09:57:04;9.90;99.90
9193;DHT22;4631;49.296;10.560;2023-10-31T09:59:31;9.90;99.90
9193;DHT22;4631;49.296;10.560;2023-10-31T10:01:57;10.00;99.90
9193;DHT22;4631;49.296;10.560;2023-10-31T10:04:24;10.00;99.90
9193;DHT22;4631;49.296;10.560;2023-10-31T10:06:53;10.00;99.90
9193;DHT22;4631;49.296;10.560;2023-10-31T10:09:24;10.10;99.90
9193;DHT22;4631;49.296;10.560;2023-10-31T10:11:51;10.10;99.90
9193;DHT22;4631;49.296;10.560;2023-10-31T10:14:18;10.10;99.90
9193;DHT22;4631;49.296;10.560;2023-10-31T10:16:44;10.20;99.90
9193;DHT22;4631;49.296;10.560;2023-10-31T10:19:14;10.20;99.90
9193;DHT22;4631;49.296;10.560;2023-10-31T10:21:46;10.30;99.90
9193;DHT22;4631;49.296;10.560;2023-10-31T10:24:14;10.20;99.90
9193;DHT22;4631;49.296;10.560;2023-10-31T10:26:41;10.20;99.90
9193;DHT22;4631;49.296;10.560;2023-10-31T10:29:07;10.10;99.90
9193;DHT22;4631;49.296;10.560;2023-10-31T10:31:34;10.20;99.90
9193;DHT22;4631;49.296;10.560;2023-10-31T10:34:00;10.20;99.90
9193;DHT22;4631;49.296;10.560;2023-10-31T10:36:27;10.10;99.90
9193;DHT22;4631;49.296;10.560;2023-10-31T10:38:56;10.20;99.90
9193;DHT22;4631;49.296;10.560;2023-10-31T10:41:25;10.10;99.90
9193;DHT22;4631;49.296;10.560;2023-10-31T10:43:52;10.00;99.90
9193;DHT22;4631;49.296;10.560;2023-10-31T10:46:21;10.00;99.90
9193;DHT22;4631;49.296;10.560;2023-10-31T10:48:51;9.90;99.90
9193;DHT22;4631;49.296;10.560;2023-10-31T10:51:21;10.00;99.90
9193;DHT22;4631;49.296;10.560;2023-10-31T10:53:52;10.00;99.90
9193;DHT22;4631;49.296;10.560;2023-10-31T10:56:24;10.00;99.90
9193;DHT22;4631;49.296;10.560;2023-10-31T10:58:55;10.00;99.90
9193;DHT22;4631;49.296;10.560;2023-10-31T11:01:25;10.00;99.90
9193;DHT22;4631;49.296;10.560;2023-10-31T11:03:53;10.00;99.90
9193;DHT22;4631;49.296;10.560;2023-10-31T11:06:20;10.00;99.90
9193;DHT22;4631;49.296;10.560;2023-10-31T11:08:47;10.10;99.90
9193;DHT22;4631;49.296;10.560;2023-10-31T11:11:14;10.10;99.90
9193;DHT22;4631;49.296;10.560;2023-10-31T11:13:42;10.10;99.90
9193;DHT22;4631;49.296;10.560;2023-10-31T11:16:12;10.10;99.90
9193;DHT22;4631;49.296;10.560;2023-10-31T11:18:39;10.20;99.90
9193;DHT22;4631;49.296;10.560;2023-10-31T11:21:07;10.30;99.90
9193;DHT22;4631;49.296;10.560;2023-10-31T11:23:33;10.40;99.90
9193;DHT22;4631;49.296;10.560;2023-10-31T11:26:00;10.40;99.90
9193;DHT22;4631;49.296;10.560;2023-10-31T11:28:26;10.40;99.90
9193;DHT22;4631;49.296;10.560;2023-10-31T11:30:53;10.40;99.90
9193;DHT22;4631;49.296;10.560;2023-10-31T11:33:27;10.50;99.90
9193;DHT22;4631;49.296;10.560;2023-10-31T11:35:59;10.50;99.90
9193;DHT22;4631;49.296;10.560;2023-10-31T11:38:30;10.50;99.90
9193;DHT22;4631;49.296;10.560;2023-10-31T11:41:00;10.60;99.90
9193;DHT22;4631;49.296;10.560;2023-10-31T11:43:35;10.70;99.90
9193;DHT22;4631;49.296;10.560;2023-10-31T11:46:02;10.70;99.90
9193;DHT22;4631;49.296;10.560;2023-10-31T11:51:27;11.00;99.90
9193;DHT22;4631;49.296;10.560;2023-10-31T11:53:53;11.10;99.90
9193;DHT22;4631;49.296;10.560;2023-10-31T11:56:20;11.20;99.90
9193;DHT22;4631;49.296;10.560;2023-10-31T11:58:54;11.30;99.90
9193;DHT22;4631;49.296;10.560;2023-10-31T12:01:21;11.30;99.90
9193;DHT22;4631;49.296;10.560;2023-10-31T12:03:47;11.40;99.90
9193;DHT22;4631;49.296;10.560;2023-10-31T12:06:14;11.40;99.90
9193;DHT22;4631;49.296;10.560;2023-10-31T12:08:44;11.50;99.90
9193;DHT22;4631;49.296;10.560;2023-10-31T12:11:13;11.60;99.90
9193;DHT22;4631;49.296;10.560;2023-10-31T12:13:41;11.80;99.90
9193;DHT22;4631;49.296;10.560;2023-10-31T12:16:08;11.90;99.90
9193;DHT22;4631;49.296;10.560;2023-10-31T12:18:35;11.90;99.90
9193;DHT22;4631;49.296;10.560;2023-10-31T12:21:04;11.90;99.90
9193;DHT22;4631;49.296;10.560;2023-10-31T12:23:32;11.90;99.90
9193;DHT22;4631;49.296;10.560;2023-10-31T12:26:00;11.80;99.90
9193;DHT22;4631;49.296;10.560;2023-10-31T12:28:27;11.70;99.90
9193;DHT22;4631;49.296;10.560;2023-10-31T12:30:54;11.70;99.90
9193;DHT22;4631;49.296;10.560;2023-10-31T12:33:22;11.60;99.90
9193;DHT22;4631;49.296;10.560;2023-10-31T12:35:50;11.60;99.90
9193;DHT22;4631;49.296;10.560;2023-10-31T12:38:17;11.50;99.90
9193;DHT22;4631;49.296;10.560;2023-10-31T12:40:44;11.50;99.90
9193;DHT22;4631;49.296;10.560;2023-10-31T12:43:12;11.60;99.90
9193;DHT22;4631;49.296;10.560;2023-10-31T12:45:39;11.80;99.90
9193;DHT22;4631;49.296;10.560;2023-10-31T12:48:06;11.80;99.90
9193;DHT22;4631;49.296;10.560;2023-10-31T12:50:33;11.80;99.90
9193;DHT22;4631;49.296;10.560;2023-10-31T12:53:02;11.70;99.90
9193;DHT22;4631;49.296;10.560;2023-10-31T12:55:29;11.60;99.90
9193;DHT22;4631;49.296;10.560;2023-10-31T12:57:56;11.70;99.90
9193;DHT22;4631;49.296;10.560;2023-10-31T13:00:30;11.70;99.90
9193;DHT22;4631;49.296;10.560;2023-10-31T13:02:58;11.80;99.90
9193;DHT22;4631;49.296;10.560;2023-10-31T13:05:25;11.90;99.90
9193;DHT22;4631;49.296;10.560;2023-10-31T13:07:52;11.80;99.90
9193;DHT22;4631;49.296;10.560;2023-10-31T13:10:20;11.80;99.90
9193;DHT22;4631;49.296;10.560;2023-10-31T13:12:48;11.80;99.90
9193;DHT22;4631;49.296;10.560;2023-10-31T13:15:15;11.90;99.90
9193;DHT22;4631;49.296;10.560;2023-10-31T13:17:43;12.10;99.90
9193;DHT22;4631;49.296;10.560;2023-10-31T13:20:10;12.30;99.90
9193;DHT22;4631;49.296;10.560;2023-10-31T13:22:37;12.50;99.90
9193;DHT22;4631;49.296;10.560;2023-10-31T13:25:04;12.70;99.90
9193;DHT22;4631;49.296;10.560;2023-10-31T13:27:32;13.00;99.90
9193;DHT22;4631;49.296;10.560;2023-10-31T13:30:00;13.10;99.90
9193;DHT22;4631;49.296;10.560;2023-10-31T13:32:27;13.30;99.90
9193;DHT22;4631;49.296;10.560;2023-10-31T13:34:55;13.20;99.90
9193;DHT22;4631;49.296;10.560;2023-10-31T13:37:22;13.00;99.90
9193;DHT22;4631;49.296;10.560;2023-10-31T13:39:48;12.80;99.90
9193;DHT22;4631;49.296;10.560;2023-10-31T13:42:15;12.60;99.90
9193;DHT22;4631;49.296;10.560;2023-10-31T13:44:42;12.50;99.90
9193;DHT22;4631;49.296;10.560;2023-10-31T13:47:09;12.30;99.90
9193;DHT22;4631;49.296;10.560;2023-10-31T13:49:36;12.20;99.90
9193;DHT22;4631;49.296;10.560;2023-10-31T13:52:04;12.10;99.90
9193;DHT22;4631;49.296;10.560;2023-10-31T13:54:31;11.90;99.90
9193;DHT22;4631;49.296;10.560;2023-10-31T13:56:58;11.90;99.90
9193;DHT22;4631;49.296;10.560;2023-10-31T13:59:25;11.80;99.90
9193;DHT22;4631;49.296;10.560;2023-10-31T14:01:51;11.90;99.90
9193;DHT22;4631;49.296;10.560;2023-10-31T14:04:18;11.90;99.90
9193;DHT22;4631;49.296;10.560;2023-10-31T14:06:45;11.90;99.90
9193;DHT22;4631;49.296;10.560;2023-10-31T14:09:13;11.80;99.90
9193;DHT22;4631;49.296;10.560;2023-10-31T14:11:40;11.80;99.90
9193;DHT22;4631;49.296;10.560;2023-10-31T14:14:07;11.70;99.90
9193;DHT22;4631;49.296;10.560;2023-10-31T14:16:35;11.60;99.90
9193;DHT22;4631;49.296;10.560;2023-10-31T14:19:02;11.60;99.90
9193;DHT22;4631;49.296;10.560;2023-10-31T14:21:29;11.50;99.90
9193;DHT22;4631;49.296;10.560;2023-10-31T14:23:55;11.40;99.90
9193;DHT22;4631;49.296;10.560;2023-10-31T14:26:24;11.40;99.90
9193;DHT22;4631;49.296;10.560;2023-10-31T14:28:50;11.40;99.90
9193;DHT22;4631;49.296;10.560;2023-10-31T14:31:17;11.30;99.90
9193;DHT22;4631;49.296;10.560;2023-10-31T14:33:44;11.40;99.90
9193;DHT22;4631;49.296;10.560;2023-10-31T14:36:11;11.40;99.90
9193;DHT22;4631;49.296;10.560;2023-10-31T14:38:38;11.40;99.90
9193;DHT22;4631;49.296;10.560;2023-10-31T14:41:05;11.50;99.90
9193;DHT22;4631;49.296;10.560;2023-10-31T14:43:34;11.60;99.90
9193;DHT22;4631;49.296;10.560;2023-10-31T14:46:01;11.60;99.90
9193;DHT22;4631;49.296;10.560;2023-10-31T14:48:27;11.50;99.90
9193;DHT22;4631;49.296;10.560;2023-10-31T14:50:55;11.50;99.90
9193;DHT22;4631;49.296;10.560;2023-10-31T14:53:22;11.50;99.90
9193;DHT22;4631;49.296;10.560;2023-10-31T14:55:49;11.50;99.90
9193;DHT22;4631;49.296;10.560;2023-10-31T14:58:18;11.50;99.90
9193;DHT22;4631;49.296;10.560;2023-10-31T15:00:46;11.50;99.90
9193;DHT22;4631;49.296;10.560;2023-10-31T15:03:15;11.40;99.90
9193;DHT22;4631;49.296;10.560;2023-10-31T15:05:42;11.40;99.90
9193;DHT22;4631;49.296;10.560;2023-10-31T15:08:08;11.30;99.90
9193;DHT22;4631;49.296;10.560;2023-10-31T15:10:35;11.40;99.90
9193;DHT22;4631;49.296;10.560;2023-10-31T15:13:02;11.30;99.90
9193;DHT22;4631;49.296;10.560;2023-10-31T15:15:29;11.30;99.90
9193;DHT22;4631;49.296;10.560;2023-10-31T15:17:57;11.30;99.90
9193;DHT22;4631;49.296;10.560;2023-10-31T15:20:24;11.30;99.90
9193;DHT22;4631;49.296;10.560;2023-10-31T15:22:51;11.20;99.90
9193;DHT22;4631;49.296;10.560;2023-10-31T15:25:18;11.20;99.90
9193;DHT22;4631;49.296;10.560;2023-10-31T15:27:45;11.20;99.90
9193;DHT22;4631;49.296;10.560;2023-10-31T15:30:12;11.10;99.90
9193;DHT22;4631;49.296;10.560;2023-10-31T15:32:38;11.00;99.90
9193;DHT22;4631;49.296;10.560;2023-10-31T15:35:07;11.10;99.90
9193;DHT22;4631;49.296;10.560;2023-10-31T15:37:33;11.10;99.90
9193;DHT22;4631;49.296;10.560;2023-10-31T15:40:00;11.10;99.90
9193;DHT22;4631;49.296;10.560;2023-10-31T15:42:28;11.10;99.90
9193;DHT22;4631;49.296;10.560;2023-10-31T15:44:55;11.10;99.90
9193;DHT22;4631;49.296;10.560;2023-10-31T15:47:21;11.10;99.90
9193;DHT22;4631;49.296;10.560;2023-10-31T15:49:48;11.00;99.90
9193;DHT22;4631;49.296;10.560;2023-10-31T15:52:16;11.00;99.90
9193;DHT22;4631;49.296;10.560;2023-10-31T15:54:43;10.90;99.90